Time;durP1;ratioP1;P1;durP2;ratioP2;P2;SDS_P1;SDS_P2;PMS_P1;PMS_P2;Temp;Humidity;BMP_temperature;BMP_pressure;BME280_temperature;BME280_humidity;BME280_pressure;Samples;Min_cycle;Max_cycle;Signal;HPM_P1;HPM_P2
2023/01/07 00:00:53;;;;;;;3.73;3.40;;;;;;;5.80;100.00;96889.84;4970607;28;102289;-63
2023/01/07 00:03:20;;;;;;;3.50;3.20;;;;;;;5.65;100.00;96882.16;4970297;28;102507;-63
2023/01/07 00:05:48;;;;;;;4.30;3.90;;;;;;;5.64;100.00;96885.00;4969915;28;103042;-63
2023/01/07 00:08:15;;;;;;;3.93;3.60;;;;;;;5.67;100.00;96884.59;4974056;28;101830;-63
2023/01/07 00:10:42;;;;;;;4.77;3.40;;;;;;;5.67;100.00;96890.66;4969681;28;102808;-63
2023/01/07 00:13:10;;;;;;;3.70;3.40;;;;;;;5.63;100.00;96888.66;4952463;28;102066;-63
2023/01/07 00:15:37;;;;;;;3.77;3.37;;;;;;;5.64;100.00;96885.00;4970750;28;102433;-63
2023/01/07 00:18:04;;;;;;;4.43;3.20;;;;;;;5.62;100.00;96879.13;4969848;28;103277;-63
2023/01/07 00:20:31;;;;;;;4.53;3.63;;;;;;;5.57;100.00;96871.03;4970447;28;101855;-63
2023/01/07 00:22:59;;;;;;;3.80;3.40;;;;;;;5.46;100.00;96874.31;4952123;28;105250;-63
2023/01/07 00:25:26;;;;;;;3.70;3.40;;;;;;;5.41;100.00;96879.38;4951634;28;105883;-63
2023/01/07 00:27:53;;;;;;;4.20;3.47;;;;;;;5.24;100.00;96878.19;4970251;28;101823;-63
2023/01/07 00:30:20;;;;;;;3.90;3.50;;;;;;;5.02;100.00;96876.81;4955383;28;105418;-63
2023/01/07 00:32:55;;;;;;;3.60;3.30;;;;;;;4.64;100.00;96875.78;4952099;28;101858;-63
2023/01/07 00:35:23;;;;;;;4.40;3.97;;;;;;;4.52;100.00;96870.28;4952145;28;105541;-63
2023/01/07 00:37:50;;;;;;;3.87;3.50;;;;;;;4.49;100.00;96872.50;4969553;28;102701;-63
2023/01/07 00:40:18;;;;;;;3.97;3.67;;;;;;;4.46;100.00;96873.72;4952372;28;102087;-63
2023/01/07 00:43:00;;;;;;;4.73;3.60;;;;;;;4.35;100.00;96870.84;4952235;28;105194;-63
2023/01/07 00:45:29;;;;;;;4.77;4.37;;;;;;;4.36;100.00;96867.25;4951690;28;105535;-63
2023/01/07 00:47:57;;;;;;;5.27;4.17;;;;;;;4.34;100.00;96869.25;4953468;28;102216;-63
2023/01/07 00:50:26;;;;;;;6.13;4.00;;;;;;;4.41;100.00;96876.16;4958516;28;105152;-63
2023/01/07 00:52:53;;;;;;;5.33;4.30;;;;;;;4.35;100.00;96865.59;4955562;28;102075;-63
2023/01/07 00:55:22;;;;;;;4.83;4.30;;;;;;;4.40;100.00;96871.06;4955875;28;105481;-63
2023/01/07 00:57:49;;;;;;;4.93;3.93;;;;;;;4.42;100.00;96869.06;4956183;28;104785;-63
2023/01/07 01:00:19;;;;;;;4.53;4.10;;;;;;;4.43;100.00;96868.84;4955528;28;102263;-63
2023/01/07 01:02:46;;;;;;;3.87;3.47;;;;;;;4.42;100.00;96867.22;4973418;28;102316;-63
2023/01/07 01:05:14;;;;;;;4.63;3.87;;;;;;;4.46;100.00;96865.81;4973067;28;103115;-63
2023/01/07 01:07:41;;;;;;;5.07;4.43;;;;;;;4.47;100.00;96866.66;4974309;28;102108;-63
2023/01/07 01:10:11;;;;;;;4.33;3.93;;;;;;;4.40;100.00;96869.25;4955669;28;105586;-63
2023/01/07 01:12:40;;;;;;;4.47;3.93;;;;;;;4.27;100.00;96866.59;4958807;28;105939;-63
2023/01/07 01:15:10;;;;;;;4.23;3.90;;;;;;;4.16;100.00;96866.38;4955619;28;103996;-63
2023/01/07 01:17:36;;;;;;;4.30;3.90;;;;;;;3.98;100.00;96869.56;4955340;28;105343;-63
2023/01/07 01:20:05;;;;;;;5.97;3.87;;;;;;;3.99;100.00;96868.53;4955095;28;101953;-63
2023/01/07 01:22:32;;;;;;;5.03;3.70;;;;;;;3.92;100.00;96865.09;4955119;28;105618;-63
2023/01/07 01:25:00;;;;;;;5.70;4.23;;;;;;;3.91;100.00;96862.66;4954265;28;105377;-63
2023/01/07 01:27:27;;;;;;;4.60;3.83;;;;;;;3.93;100.00;96865.91;4973574;28;102672;-63
2023/01/07 01:29:55;;;;;;;6.20;3.87;;;;;;;4.00;100.00;96861.47;4954930;28;105527;-63
2023/01/07 01:32:22;;;;;;;4.63;3.90;;;;;;;3.83;100.00;96862.84;4953772;28;105133;-63
2023/01/07 01:34:48;;;;;;;4.37;3.97;;;;;;;3.94;100.00;96859.63;4958089;28;101976;-63
2023/01/07 01:37:15;;;;;;;3.90;3.60;;;;;;;3.91;100.00;96866.09;4954770;28;105446;-63
2023/01/07 01:39:42;;;;;;;4.20;3.80;;;;;;;3.89;100.00;96859.41;4956342;28;101875;-63
2023/01/07 01:42:12;;;;;;;4.27;3.50;;;;;;;3.86;100.00;96859.78;4954921;28;104843;-63
2023/01/07 01:44:48;;;;;;;4.70;3.60;;;;;;;3.46;100.00;96858.84;4938362;28;105989;-64
2023/01/07 01:47:32;;;;;;;4.70;4.23;;;;;;;3.36;100.00;96863.63;4955030;28;101806;-64
2023/01/07 01:50:04;;;;;;;5.60;4.30;;;;;;;3.42;100.00;96859.41;4972938;28;102355;-64
2023/01/07 01:52:38;;;;;;;4.50;3.93;;;;;;;3.46;100.00;96858.00;4954846;28;105585;-63
2023/01/07 01:55:08;;;;;;;4.93;4.43;;;;;;;3.48;100.00;96848.09;4954503;28;102007;-64
2023/01/07 01:57:37;;;;;;;5.20;4.60;;;;;;;3.43;100.00;96843.44;4974927;28;101666;-64
2023/01/07 02:00:06;;;;;;;5.20;3.93;;;;;;;3.39;100.00;96842.19;4955870;28;102155;-64
2023/01/07 02:02:46;;;;;;;4.80;4.10;;;;;;;3.37;100.00;96840.75;4968994;28;102698;-64
2023/01/07 02:05:15;;;;;;;4.40;4.00;;;;;;;3.32;100.00;96836.09;4953390;28;105085;-64
2023/01/07 02:07:42;;;;;;;5.87;4.33;;;;;;;3.34;100.00;96833.28;4955121;28;101870;-64
2023/01/07 02:10:14;;;;;;;4.17;3.77;;;;;;;3.21;100.00;96827.94;4954607;28;105312;-64
2023/01/07 02:12:55;;;;;;;5.20;4.20;;;;;;;3.00;100.00;96831.47;4954169;28;105603;-64
2023/01/07 02:15:45;;;;;;;3.97;3.60;;;;;;;2.72;100.00;96832.47;4954112;28;101768;-64
2023/01/07 02:18:26;;;;;;;4.87;4.27;;;;;;;2.68;100.00;96829.41;4954212;28;105836;-64
2023/01/07 02:21:08;;;;;;;4.57;4.07;;;;;;;2.73;100.00;96832.28;4957167;28;105080;-64
2023/01/07 02:24:08;;;;;;;4.90;4.37;;;;;;;2.80;100.00;96829.72;4972467;28;102889;-64
2023/01/07 02:27:09;;;;;;;4.60;4.20;;;;;;;2.97;100.00;96834.50;4953561;28;105438;-64
2023/01/07 02:30:15;;;;;;;4.37;3.97;;;;;;;2.84;100.00;96823.09;4954868;28;101910;-64
2023/01/07 02:33:02;;;;;;;4.07;3.67;;;;;;;2.90;100.00;96824.94;4890126;28;106084;-64
2023/01/07 02:35:45;;;;;;;4.73;3.93;;;;;;;2.93;100.00;96822.75;4953530;28;105563;-64
2023/01/07 02:38:21;;;;;;;4.13;3.73;;;;;;;2.93;100.00;96827.16;4953858;28;101880;-64
2023/01/07 02:40:58;;;;;;;4.87;4.10;;;;;;;2.82;100.00;96819.81;4955220;28;105190;-64
2023/01/07 02:43:33;;;;;;;5.53;4.10;;;;;;;2.87;100.00;96820.06;4955632;28;104986;-64
2023/01/07 02:46:10;;;;;;;4.43;3.70;;;;;;;2.88;100.00;96822.50;4959147;28;101940;-64
2023/01/07 02:48:39;;;;;;;4.03;3.70;;;;;;;2.94;100.00;96815.66;4953025;28;105466;-64
2023/01/07 02:51:07;;;;;;;3.90;3.60;;;;;;;2.97;100.00;96820.53;4955523;28;101833;-64
2023/01/07 02:53:35;;;;;;;3.50;3.20;;;;;;;3.00;100.00;96813.06;4954716;28;104066;-64
2023/01/07 02:56:18;;;;;;;4.30;3.90;;;;;;;3.09;100.00;96814.56;4954519;28;104069;-64
2023/01/07 02:59:02;;;;;;;3.83;3.50;;;;;;;3.09;100.00;96813.72;4955031;28;102095;-64
2023/01/07 03:02:02;;;;;;;4.13;3.73;;;;;;;3.15;100.00;96799.81;4953530;28;105320;-64
2023/01/07 03:04:50;;;;;;;4.00;3.70;;;;;;;3.15;100.00;96799.81;4965771;28;103060;-64
2023/01/07 03:07:29;;;;;;;4.10;3.70;;;;;;;3.19;100.00;96793.16;4956777;28;101976;-64
2023/01/07 03:10:05;;;;;;;4.37;3.87;;;;;;;3.30;100.00;96800.50;4952929;28;105305;-64
2023/01/07 03:12:37;;;;;;;4.43;4.03;;;;;;;3.31;100.00;96792.44;4952532;28;101872;-64
2023/01/07 03:15:11;;;;;;;4.57;3.90;;;;;;;3.34;100.00;96797.28;4954865;28;104887;-64
2023/01/07 03:17:49;;;;;;;3.93;3.63;;;;;;;3.29;100.00;96794.44;4952748;28;105863;-64
2023/01/07 03:20:21;;;;;;;5.00;3.77;;;;;;;3.31;100.00;96791.59;4953649;28;101945;-64
2023/01/07 03:22:49;;;;;;;3.93;3.63;;;;;;;3.12;100.00;96792.34;4971026;28;102284;-64
2023/01/07 03:25:19;;;;;;;3.67;3.37;;;;;;;3.18;100.00;96788.94;4952410;28;105561;-65
2023/01/07 03:27:48;;;;;;;4.20;3.80;;;;;;;3.08;100.00;96788.47;4953252;28;101857;-64
2023/01/07 03:30:18;;;;;;;4.73;3.57;;;;;;;2.86;100.00;96784.28;4956027;28;105257;-64
2023/01/07 03:32:52;;;;;;;3.80;3.33;;;;;;;2.94;100.00;96794.63;4952548;28;102136;-65
2023/01/07 03:35:23;;;;;;;4.00;3.60;;;;;;;3.00;100.00;96783.38;4952978;28;103490;-65
2023/01/07 03:37:52;;;;;;;4.47;4.07;;;;;;;2.70;100.00;96781.97;4952549;28;105451;-65
2023/01/07 03:40:20;;;;;;;4.27;3.87;;;;;;;2.74;100.00;96791.09;4953207;28;101881;-65
2023/01/07 03:42:48;;;;;;;4.23;3.90;;;;;;;2.75;100.00;96782.22;4953527;28;105120;-65
2023/01/07 03:45:26;;;;;;;5.60;4.20;;;;;;;2.96;100.00;96782.13;4955541;28;105793;-64
2023/01/07 03:47:57;;;;;;;4.60;4.20;;;;;;;3.11;100.00;96774.97;4953074;28;102071;-65
2023/01/07 03:50:31;;;;;;;4.67;4.17;;;;;;;3.08;100.00;96775.34;4952952;28;105357;-65
2023/01/07 03:52:58;;;;;;;6.17;4.10;;;;;;;3.08;100.00;96770.91;4956063;28;105347;-64
2023/01/07 03:55:25;;;;;;;5.17;4.03;;;;;;;3.12;100.00;96766.84;4953670;28;104970;-65
2023/01/07 03:57:55;;;;;;;5.80;4.53;;;;;;;3.10;100.00;96762.78;4952403;28;104999;-65
2023/01/07 04:00:24;;;;;;;4.67;4.00;;;;;;;3.18;100.00;96762.66;4952639;28;101888;-65
2023/01/07 04:02:57;;;;;;;4.50;4.10;;;;;;;3.26;100.00;96758.03;4952633;28;104795;-65
2023/01/07 04:05:30;;;;;;;4.33;3.93;;;;;;;3.19;100.00;96761.63;4951898;28;105191;-65
2023/01/07 04:07:58;;;;;;;3.90;3.57;;;;;;;2.98;100.00;96759.09;4952818;28;101869;-65
2023/01/07 04:10:30;;;;;;;4.57;3.60;;;;;;;2.91;100.00;96753.00;4952785;28;105036;-65
2023/01/07 04:12:57;;;;;;;4.63;3.80;;;;;;;2.93;100.00;96745.75;4951825;28;105961;-65
2023/01/07 04:15:24;;;;;;;4.10;3.73;;;;;;;2.85;100.00;96745.91;4958348;28;102034;-65
2023/01/07 04:17:51;;;;;;;5.80;3.90;;;;;;;2.67;100.00;96743.00;4952022;28;105892;-65
2023/01/07 04:20:18;;;;;;;4.23;3.83;;;;;;;2.70;100.00;96742.59;4952663;28;101879;-65
2023/01/07 04:22:47;;;;;;;4.00;3.60;;;;;;;2.57;100.00;96739.88;4953966;28;104318;-65
2023/01/07 04:25:14;;;;;;;4.67;3.73;;;;;;;2.54;100.00;96727.13;4954865;28;105826;-65
2023/01/07 04:27:41;;;;;;;4.00;3.60;;;;;;;2.50;100.00;96725.88;4956070;28;101869;-65
2023/01/07 04:30:09;;;;;;;3.93;3.50;;;;;;;2.44;100.00;96726.66;4956204;28;105117;-65
2023/01/07 04:32:35;;;;;;;3.90;3.60;;;;;;;2.29;100.00;96718.88;4955043;28;105698;-65
2023/01/07 04:35:03;;;;;;;4.00;3.70;;;;;;;2.24;100.00;96723.91;4955785;28;101939;-65
2023/01/07 04:37:31;;;;;;;3.80;3.50;;;;;;;2.08;100.00;96718.13;4958591;28;105274;-66
2023/01/07 04:40:00;;;;;;;4.80;3.60;;;;;;;2.04;100.00;96716.88;4955852;28;101886;-66
2023/01/07 04:42:27;;;;;;;4.40;3.73;;;;;;;1.96;100.00;96714.38;4955778;28;104946;-66
2023/01/07 04:44:54;;;;;;;4.67;3.97;;;;;;;1.81;100.00;96716.28;4954980;28;105076;-66
2023/01/07 04:47:22;;;;;;;4.33;3.80;;;;;;;1.75;100.00;96712.59;4955571;28;101749;-66
2023/01/07 04:49:49;;;;;;;5.03;4.40;;;;;;;1.72;100.00;96697.25;4955966;28;105143;-66
2023/01/07 04:52:17;;;;;;;3.70;3.40;;;;;;;1.74;100.00;96699.66;4955014;28;104592;-66
2023/01/07 04:54:44;;;;;;;4.03;3.57;;;;;;;1.71;100.00;96695.59;4955486;28;101806;-65
2023/01/07 04:57:12;;;;;;;4.27;3.87;;;;;;;1.71;100.00;96690.34;4955383;28;104811;-66
2023/01/07 04:59:39;;;;;;;4.30;3.70;;;;;;;1.70;100.00;96688.75;4957866;28;101946;-66
2023/01/07 05:02:06;;;;;;;3.90;3.60;;;;;;;1.79;100.00;96676.31;4955459;28;105579;-66
2023/01/07 05:04:33;;;;;;;4.30;3.80;;;;;;;1.70;100.00;96680.09;4954840;28;105390;-66
2023/01/07 05:07:01;;;;;;;5.23;4.30;;;;;;;1.68;100.00;96674.19;4955565;28;102087;-66
2023/01/07 05:09:29;;;;;;;4.77;4.37;;;;;;;1.82;100.00;96668.09;4956181;28;105046;-66
2023/01/07 05:11:58;;;;;;;4.27;3.80;;;;;;;1.60;100.00;96667.28;4955419;28;105258;-66
2023/01/07 05:14:27;;;;;;;4.70;3.77;;;;;;;1.52;100.00;96675.28;4955609;28;101963;-65
2023/01/07 05:16:56;;;;;;;5.07;4.13;;;;;;;1.60;100.00;96666.47;4955240;28;104425;-66
2023/01/07 05:19:25;;;;;;;5.27;4.10;;;;;;;1.55;100.00;96664.44;4958402;28;104463;-66
2023/01/07 05:21:53;;;;;;;6.40;4.63;;;;;;;1.60;100.00;96661.25;4955269;28;105278;-66
2023/01/07 05:24:20;;;;;;;4.40;4.00;;;;;;;1.59;100.00;96655.19;4954605;28;105179;-66
2023/01/07 05:26:47;;;;;;;6.97;4.07;;;;;;;1.57;100.00;96648.50;4955351;28;101771;-66
2023/01/07 05:29:17;;;;;;;4.30;3.90;;;;;;;1.54;100.00;96651.50;4955542;28;104466;-66
2023/01/07 05:31:46;;;;;;;3.83;3.53;;;;;;;1.42;100.00;96647.78;4954583;28;105510;-66
2023/01/07 05:34:14;;;;;;;4.53;4.00;;;;;;;1.47;100.00;96640.13;4953856;28;102087;-66
2023/01/07 05:36:43;;;;;;;4.10;3.70;;;;;;;1.44;100.00;96636.13;4956350;28;101930;-66
2023/01/07 05:39:11;;;;;;;4.43;3.53;;;;;;;1.27;100.00;96641.78;4954597;28;105243;-66
2023/01/07 05:41:38;;;;;;;5.43;3.80;;;;;;;1.15;100.00;96635.41;4976254;28;102348;-66
2023/01/07 05:44:06;;;;;;;3.70;3.40;;;;;;;1.09;100.00;96636.97;4954773;28;105141;-66
2023/01/07 05:46:33;;;;;;;5.50;4.07;;;;;;;1.22;100.00;96634.47;4955361;28;102030;-66
2023/01/07 05:49:01;;;;;;;5.37;4.80;;;;;;;1.29;100.00;96635.34;4972938;28;102856;-66
2023/01/07 05:51:28;;;;;;;4.40;4.00;;;;;;;1.10;100.00;96620.25;4972611;28;102698;-66
2023/01/07 05:53:55;;;;;;;5.17;4.30;;;;;;;1.14;100.00;96613.66;4972680;28;101780;-66
2023/01/07 05:56:22;;;;;;;4.87;4.30;;;;;;;1.26;100.00;96616.59;4972523;28;102879;-66
2023/01/07 05:58:49;;;;;;;4.60;4.03;;;;;;;1.28;100.00;96611.97;4954810;28;105147;-66
2023/01/07 06:01:16;;;;;;;4.00;3.70;;;;;;;1.21;100.00;96608.47;4972475;28;101847;-66
2023/01/07 06:03:43;;;;;;;5.33;4.30;;;;;;;1.09;100.00;96609.97;4975532;28;103321;-66
2023/01/07 06:06:11;;;;;;;5.03;4.30;;;;;;;1.32;100.00;96611.38;4972516;28;101806;-66
2023/01/07 06:08:39;;;;;;;4.40;4.00;;;;;;;1.45;100.00;96608.09;4972720;28;102573;-66
2023/01/07 06:11:07;;;;;;;4.43;4.03;;;;;;;1.49;100.00;96611.97;4954826;28;105326;-66
2023/01/07 06:13:34;;;;;;;5.40;4.80;;;;;;;1.55;100.00;96608.56;4955622;28;101922;-66
2023/01/07 06:16:01;;;;;;;5.83;4.40;;;;;;;1.49;100.00;96604.09;4954675;28;104808;-66
2023/01/07 06:18:28;;;;;;;4.33;3.93;;;;;;;1.21;100.00;96604.03;4972046;28;102692;-66
2023/01/07 06:20:55;;;;;;;4.20;3.80;;;;;;;1.18;100.00;96593.13;4954926;28;101785;-66
2023/01/07 06:23:24;;;;;;;4.40;4.00;;;;;;;1.19;100.00;96594.75;4972414;28;103205;-65
2023/01/07 06:25:50;;;;;;;6.07;4.20;;;;;;;1.15;100.00;96593.50;4974928;28;102484;-66
2023/01/07 06:28:18;;;;;;;4.70;4.03;;;;;;;1.14;100.00;96589.25;4954573;28;105263;-66
2023/01/07 06:30:45;;;;;;;3.97;3.57;;;;;;;0.90;100.00;96590.44;4953815;28;105390;-66
2023/01/07 06:33:12;;;;;;;5.10;4.07;;;;;;;0.93;100.00;96589.28;4972076;28;101906;-67
2023/01/07 06:35:39;;;;;;;4.03;3.73;;;;;;;0.81;100.00;96588.09;4972195;28;102270;-67
2023/01/07 06:38:07;;;;;;;4.00;3.70;;;;;;;0.83;100.00;96586.13;4971936;28;102756;-66
2023/01/07 06:40:35;;;;;;;5.70;3.97;;;;;;;0.74;100.00;96582.00;4954456;28;101954;-67
2023/01/07 06:43:02;;;;;;;4.17;3.77;;;;;;;0.87;100.00;96582.94;4954858;28;103749;-66
2023/01/07 06:45:29;;;;;;;4.33;3.70;;;;;;;0.82;100.00;96585.31;4953795;28;105482;-66
2023/01/07 06:47:56;;;;;;;4.37;3.63;;;;;;;0.99;100.00;96591.13;4958106;28;102328;-66
2023/01/07 06:50:23;;;;;;;4.83;3.93;;;;;;;0.92;100.00;96588.44;4953578;28;105383;-66
2023/01/07 06:52:50;;;;;;;4.57;4.00;;;;;;;0.82;100.00;96582.69;4972012;28;102152;-66
2023/01/07 06:55:17;;;;;;;4.27;3.83;;;;;;;0.78;100.00;96578.81;4953895;28;103880;-66
2023/01/07 06:57:45;;;;;;;3.30;3.07;;;;;;;0.82;100.00;96574.06;4953418;28;105864;-66
2023/01/07 07:00:13;;;;;;;4.00;3.70;;;;;;;0.91;100.00;96575.53;4971578;28;101805;-66
2023/01/07 07:02:40;;;;;;;4.77;3.87;;;;;;;0.97;100.00;96573.00;4954767;28;105011;-66
2023/01/07 07:05:07;;;;;;;6.20;4.20;;;;;;;1.00;100.00;96575.22;4953275;28;105004;-66
2023/01/07 07:07:34;;;;;;;4.10;3.70;;;;;;;1.03;100.00;96576.66;4957959;28;101893;-66
2023/01/07 07:10:05;;;;;;;5.67;4.30;;;;;;;1.00;100.00;96585.69;4952514;28;105556;-67
2023/01/07 07:12:32;;;;;;;4.23;3.83;;;;;;;0.87;100.00;96575.09;4953469;28;101925;-66
2023/01/07 07:15:01;;;;;;;4.43;4.03;;;;;;;0.69;100.00;96571.28;4952931;28;105024;-66
2023/01/07 07:17:27;;;;;;;4.20;3.80;;;;;;;0.65;100.00;96570.00;4952348;28;105008;-66
2023/01/07 07:19:54;;;;;;;7.60;4.63;;;;;;;0.73;100.00;96573.31;4970919;28;101871;-66
2023/01/07 07:22:21;;;;;;;4.90;4.40;;;;;;;0.71;100.00;96562.25;4953724;28;105278;-66
2023/01/07 07:24:48;;;;;;;4.67;4.17;;;;;;;0.74;100.00;96564.50;4954769;28;105142;-66
2023/01/07 07:27:20;;;;;;;4.80;4.30;;;;;;;0.61;100.00;96568.78;4955220;28;101899;-66
2023/01/07 07:29:46;;;;;;;5.03;4.63;;;;;;;0.79;100.00;96577.03;4957908;28;105101;-66
2023/01/07 07:32:15;;;;;;;25.90;17.03;;;;;;;0.79;100.00;96571.78;4953978;28;102190;-66
2023/01/07 07:34:41;;;;;;;12.00;8.63;;;;;;;0.96;100.00;96565.31;4953882;28;105180;-65
2023/01/07 07:37:09;;;;;;;14.63;10.40;;;;;;;0.95;100.00;96561.09;4953995;28;105290;-65
2023/01/07 07:39:36;;;;;;;29.90;22.23;;;;;;;1.06;100.00;96561.41;4953567;28;101896;-65
2023/01/07 07:42:03;;;;;;;30.80;20.57;;;;;;;1.07;100.00;96562.19;4952577;28;103735;-65
2023/01/07 07:44:31;;;;;;;15.33;12.03;;;;;;;0.87;100.00;96569.03;4951560;28;105326;-65
2023/01/07 07:46:58;;;;;;;12.70;9.80;;;;;;;0.84;100.00;96561.56;4953247;28;102067;-65
2023/01/07 07:49:26;;;;;;;9.87;7.17;;;;;;;0.76;100.00;96553.81;4972859;28;103750;-65
2023/01/07 07:51:53;;;;;;;7.77;5.80;;;;;;;0.64;100.00;96556.13;4975609;28;105222;-65
2023/01/07 07:54:20;;;;;;;6.60;5.47;;;;;;;0.68;100.00;96554.78;4971954;28;105074;-65
2023/01/07 07:56:46;;;;;;;8.40;6.20;;;;;;;0.60;100.00;96554.88;4970996;28;102519;-65
2023/01/07 07:59:13;;;;;;;7.60;6.70;;;;;;;0.64;100.00;96553.53;4952535;28;101953;-65
2023/01/07 08:01:40;;;;;;;8.50;7.60;;;;;;;0.39;100.00;96544.38;4951947;28;105145;-65
2023/01/07 08:04:07;;;;;;;11.83;9.00;;;;;;;0.42;100.00;96535.34;4951869;28;105281;-65
2023/01/07 08:06:35;;;;;;;12.07;9.33;;;;;;;0.56;100.00;96534.50;4969245;28;101892;-66
2023/01/07 08:09:03;;;;;;;13.13;11.60;;;;;;;0.80;100.00;96529.75;4952657;28;104843;-66
2023/01/07 08:11:29;;;;;;;12.20;10.37;;;;;;;0.92;100.00;96536.09;4950796;28;105039;-66
2023/01/07 08:13:56;;;;;;;13.33;10.30;;;;;;;1.00;100.00;96532.53;4954883;28;102030;-66
2023/01/07 08:16:23;;;;;;;11.23;9.40;;;;;;;1.00;100.00;96532.53;4950701;28;105813;-66
2023/01/07 08:18:50;;;;;;;8.93;7.67;;;;;;;1.08;100.00;96527.97;4952383;28;102315;-66
2023/01/07 08:21:17;;;;;;;10.10;7.90;;;;;;;1.38;100.00;96531.25;4952393;28;104903;-66
2023/01/07 08:23:45;;;;;;;8.60;7.37;;;;;;;1.56;100.00;96531.56;4951836;28;105047;-65
2023/01/07 08:26:13;;;;;;;8.47;7.47;;;;;;;1.76;100.00;96528.06;4949814;28;103235;-66
2023/01/07 08:28:40;;;;;;;14.63;12.33;;;;;;;1.95;100.00;96529.19;4967828;28;103020;-64
2023/01/07 08:31:07;;;;;;;22.53;17.00;;;;;;;2.11;100.00;96523.63;4950322;28;105026;-64
2023/01/07 08:33:37;;;;;;;17.60;12.07;;;;;;;2.33;100.00;96525.16;4950372;28;101901;-61
2023/01/07 08:36:05;;;;;;;18.07;13.57;;;;;;;2.48;100.00;96521.38;4952683;28;104157;-61
2023/01/07 08:38:32;;;;;;;15.93;13.03;;;;;;;2.58;100.00;96521.00;4967808;28;101902;-64
2023/01/07 08:41:01;;;;;;;16.13;13.13;;;;;;;2.61;100.00;96513.53;4950382;28;105094;-64
2023/01/07 08:43:29;;;;;;;13.80;12.33;;;;;;;2.59;100.00;96517.38;4950315;28;104620;-64
2023/01/07 08:45:56;;;;;;;10.90;9.27;;;;;;;2.72;100.00;96510.34;4967701;28;102103;-64
2023/01/07 08:48:23;;;;;;;9.47;8.07;;;;;;;2.87;100.00;96510.16;4951454;28;105581;-64
2023/01/07 08:50:52;;;;;;;9.13;8.10;;;;;;;2.96;100.00;96506.34;4950789;28;103992;-64
2023/01/07 08:53:19;;;;;;;8.80;7.90;;;;;;;3.03;100.00;96507.16;4951472;28;101963;-64
2023/01/07 08:55:46;;;;;;;8.87;7.97;;;;;;;3.12;100.00;96498.06;4950594;28;104876;-64
2023/01/07 08:58:14;;;;;;;9.60;8.60;;;;;;;3.24;100.00;96483.31;4954152;28;105101;-64
2023/01/07 09:00:41;;;;;;;10.47;8.80;;;;;;;3.25;100.00;96479.69;4951490;28;104084;-64
2023/01/07 09:03:08;;;;;;;9.67;8.67;;;;;;;3.40;100.00;96486.34;4950859;28;105635;-64
2023/01/07 09:05:35;;;;;;;12.70;10.20;;;;;;;3.51;100.00;96490.19;4968638;28;102443;-62
2023/01/07 09:08:03;;;;;;;12.97;11.20;;;;;;;3.46;100.00;96498.69;4968097;28;102957;-64
2023/01/07 09:10:30;;;;;;;9.03;7.90;;;;;;;3.68;100.00;96496.63;4951787;28;105293;-63
2023/01/07 09:12:57;;;;;;;8.97;7.53;;;;;;;3.82;100.00;96496.38;4972136;28;101925;-63
2023/01/07 09:15:25;;;;;;;8.83;8.03;;;;;;;3.95;100.00;96488.50;4954172;28;105216;-63
2023/01/07 09:17:53;;;;;;;8.57;7.23;;;;;;;4.01;100.00;96484.19;4974842;28;103121;-65
2023/01/07 09:20:20;;;;;;;7.43;6.73;;;;;;;3.97;100.00;96483.81;4954358;28;105214;-64
2023/01/07 09:22:47;;;;;;;7.60;6.20;;;;;;;4.25;100.00;96481.69;4953579;28;105487;-61
2023/01/07 09:25:14;;;;;;;7.00;6.30;;;;;;;4.35;100.00;96471.53;4953711;28;101888;-63
2023/01/07 09:27:42;;;;;;;6.27;5.67;;;;;;;4.47;100.00;96474.31;4953882;28;105401;-66
2023/01/07 09:30:10;;;;;;;6.17;5.40;;;;;;;4.55;100.00;96466.97;4954122;28;104301;-62
2023/01/07 09:32:38;;;;;;;5.27;4.87;;;;;;;4.69;100.00;96472.97;4950766;28;101913;-65
2023/01/07 09:35:06;;;;;;;5.60;5.10;;;;;;;4.73;100.00;96477.59;4943500;28;103983;-63
2023/01/07 09:37:33;;;;;;;5.70;5.20;;;;;;;4.85;100.00;96475.13;4953583;28;103939;-63
2023/01/07 09:40:00;;;;;;;6.53;5.50;;;;;;;4.98;100.00;96469.75;4956968;28;102191;-63
2023/01/07 09:42:38;;;;;;;5.50;5.00;;;;;;;5.04;100.00;96467.06;4953323;28;105060;-63
2023/01/07 09:45:10;;;;;;;5.10;4.60;;;;;;;5.22;100.00;96464.50;4953725;28;101938;-63
2023/01/07 09:47:43;;;;;;;4.70;4.30;;;;;;;5.53;100.00;96459.16;4954087;28;105304;-65
2023/01/07 09:50:21;;;;;;;4.60;4.20;;;;;;;5.49;100.00;96465.06;4953627;28;105375;-64
2023/01/07 09:52:52;;;;;;;4.80;4.40;;;;;;;5.72;100.00;96460.78;4971871;28;102126;-64
2023/01/07 09:55:24;;;;;;;5.40;4.53;;;;;;;6.00;100.00;96455.06;4953197;28;105187;-64
2023/01/07 09:57:51;;;;;;;4.57;4.17;;;;;;;5.94;100.00;96453.31;4953494;28;105719;-64
2023/01/07 10:00:20;;;;;;;4.80;4.40;;;;;;;5.97;100.00;96444.94;4971765;28;101917;-64
2023/01/07 10:03:14;;;;;;;5.10;4.60;;;;;;;5.89;100.00;96432.03;4956005;28;105360;-64
2023/01/07 10:05:49;;;;;;;4.90;4.50;;;;;;;6.01;100.00;96432.91;4953300;28;103444;-64
2023/01/07 10:08:26;;;;;;;6.00;4.47;;;;;;;5.94;100.00;96427.69;4953614;28;105641;-64
2023/01/07 10:11:00;;;;;;;4.67;4.27;;;;;;;5.93;100.00;96425.28;4953164;28;105542;-64
2023/01/07 10:13:44;;;;;;;4.50;4.10;;;;;;;6.05;100.00;96412.97;4953700;28;101967;-64
2023/01/07 10:16:18;;;;;;;4.47;4.00;;;;;;;6.03;100.00;96409.72;4953541;28;105157;-64
2023/01/07 10:18:58;;;;;;;5.53;4.17;;;;;;;5.99;100.00;96408.56;4952821;28;105513;-64
2023/01/07 10:21:27;;;;;;;3.93;3.63;;;;;;;5.80;100.00;96406.97;4970000;28;101887;-64
2023/01/07 10:24:02;;;;;;;4.10;3.77;;;;;;;5.60;100.00;96401.88;4953532;28;105597;-64
2023/01/07 10:26:35;;;;;;;4.53;4.13;;;;;;;5.64;100.00;96396.97;4955642;28;106279;-64
2023/01/07 10:29:07;;;;;;;4.50;4.10;;;;;;;6.05;100.00;96402.41;4953781;28;105144;-64
2023/01/07 10:31:34;;;;;;;4.50;4.10;;;;;;;6.32;100.00;96395.78;4950706;28;105411;-64
2023/01/07 10:34:06;;;;;;;4.20;3.83;;;;;;;6.56;100.00;96389.53;4970418;28;102088;-64
2023/01/07 10:36:39;;;;;;;4.03;3.63;;;;;;;6.68;100.00;96383.25;4970524;28;102713;-64
2023/01/07 10:39:18;;;;;;;3.40;3.10;;;;;;;6.64;100.00;96376.81;4970485;28;102676;-64
2023/01/07 10:41:55;;;;;;;3.20;3.00;;;;;;;6.70;100.00;96367.97;4951751;28;101776;-64
2023/01/07 10:44:56;;;;;;;3.43;3.13;;;;;;;6.71;100.00;96366.16;4953493;28;102335;-64
2023/01/07 10:47:34;;;;;;;3.90;3.60;;;;;;;6.99;100.00;96358.38;4953637;28;102577;-64
2023/01/07 10:50:33;;;;;;;4.60;3.93;;;;;;;6.99;100.00;96355.72;4956761;28;101853;-64
2023/01/07 10:53:05;;;;;;;4.50;4.07;;;;;;;6.79;100.00;96352.59;4970632;28;102479;-64
2023/01/07 10:55:48;;;;;;;4.73;4.33;;;;;;;7.07;100.00;96342.16;4952669;28;102262;-64
2023/01/07 10:58:16;;;;;;;4.33;3.93;;;;;;;7.42;100.00;96342.97;4953132;28;105574;-64
2023/01/07 11:00:47;;;;;;;5.30;4.07;;;;;;;7.61;100.00;96336.50;4969865;28;102531;-64
2023/01/07 11:03:19;;;;;;;4.27;3.87;;;;;;;7.70;100.00;96329.81;4971096;28;101871;-64
2023/01/07 11:05:53;;;;;;;4.20;3.80;;;;;;;7.70;100.00;96333.25;4952481;28;105346;-64
2023/01/07 11:08:29;;;;;;;4.33;3.43;;;;;;;7.95;100.00;96325.00;4952149;28;105350;-64
2023/01/07 11:10:56;;;;;;;3.97;3.60;;;;;;;7.99;100.00;96321.69;4951909;28;102208;-64
2023/01/07 11:13:27;;;;;;;5.13;4.10;;;;;;;8.29;100.00;96316.19;4955511;28;104110;-64
2023/01/07 11:16:00;;;;;;;5.13;3.80;;;;;;;8.25;100.00;96313.22;4969877;28;102049;-67
2023/01/07 11:18:33;;;;;;;4.37;3.97;;;;;;;8.49;100.00;96312.03;4952598;28;105189;-70
2023/01/07 11:21:01;;;;;;;4.70;3.80;;;;;;;8.55;100.00;96311.06;4969973;28;102573;-66
2023/01/07 11:23:34;;;;;;;4.10;3.60;;;;;;;8.31;100.00;96303.50;4970035;28;101928;-66
2023/01/07 11:26:13;;;;;;;4.50;3.87;;;;;;;8.32;100.00;96307.75;4951753;28;105139;-66
2023/01/07 11:28:52;;;;;;;5.03;3.67;;;;;;;8.82;100.00;96300.63;4969511;28;103095;-66
2023/01/07 11:31:20;;;;;;;4.17;3.60;;;;;;;9.00;100.00;96301.19;4970163;28;102142;-66
2023/01/07 11:33:50;;;;;;;3.03;2.83;;;;;;;9.19;100.00;96288.47;4972343;28;102487;-66
2023/01/07 11:36:20;;;;;;;3.07;2.87;;;;;;;8.97;100.00;96280.47;4952229;28;101926;-66
2023/01/07 11:38:48;;;;;;;3.40;3.10;;;;;;;9.01;100.00;96275.50;4969782;28;102309;-66